createdAt,value
2022-09-28T00:08:45.643Z,96.43
2022-09-28T00:18:59.380Z,96.30
2022-09-28T00:29:10.230Z,96.59
2022-09-28T00:39:25.359Z,96.68
2022-09-28T00:49:43.446Z,96.69
2022-09-28T00:59:53.822Z,96.58
2022-09-28T01:09:57.856Z,97.01
2022-09-28T01:20:45.141Z,97.07
2022-09-28T01:30:52.139Z,96.73
2022-09-28T01:41:02.358Z,96.38
2022-09-28T01:51:17.381Z,96.96
2022-09-28T02:01:25.776Z,96.94
2022-09-28T02:11:43.513Z,96.96
2022-09-28T02:22:06.236Z,96.91
2022-09-28T02:32:24.046Z,97.11
2022-09-28T02:42:44.413Z,97.03
2022-09-28T02:53:09.637Z,97.05
2022-09-28T03:03:36.481Z,97.00
2022-09-28T03:13:45.990Z,97.04
2022-09-28T03:23:52.853Z,97.54
2022-09-28T03:34:10.307Z,97.13
2022-09-28T03:44:21.900Z,97.09
2022-09-28T03:54:28.214Z,97.55
2022-09-28T04:04:41.979Z,97.59
2022-09-28T04:14:46.287Z,97.61
2022-09-28T04:24:56.225Z,97.36
2022-09-28T04:35:10.947Z,97.28
2022-09-28T04:45:26.993Z,97.39
2022-09-28T04:55:34.468Z,97.48
2022-09-28T05:05:48.142Z,97.57
2022-09-28T05:16:05.204Z,97.56
2022-09-28T05:26:10.327Z,97.22
2022-09-28T05:46:56.206Z,97.71
2022-09-28T05:57:09.156Z,97.39
2022-09-28T06:07:15.160Z,97.40
2022-09-28T06:17:20.289Z,98.00
2022-09-28T06:27:29.713Z,98.04
2022-09-28T06:37:41.577Z,98.25
2022-09-28T06:47:57.521Z,97.81
2022-09-28T06:58:20.052Z,97.82
2022-09-28T07:08:35.999Z,97.54
2022-09-28T07:18:45.426Z,97.79
2022-09-28T07:28:53.627Z,97.04
2022-09-28T07:51:01.939Z,97.88
2022-09-28T08:12:09.830Z,97.67
2022-09-28T08:22:42.442Z,97.90
2022-09-28T08:33:08.415Z,97.61
2022-09-28T08:54:13.797Z,97.72
2022-09-28T09:04:32.276Z,97.62
2022-09-28T09:15:17.799Z,97.91
2022-09-28T09:25:51.715Z,98.00
2022-09-28T09:36:29.392Z,98.32
2022-09-28T09:47:29.413Z,98.37
2022-09-28T09:57:54.396Z,98.30
2022-09-28T10:08:09.443Z,98.13
2022-09-28T10:18:28.389Z,98.15
2022-09-28T10:28:48.654Z,98.45
2022-09-28T10:38:57.329Z,98.31
2022-09-28T10:49:03.476Z,98.77
2022-09-28T10:59:26.081Z,98.58
2022-09-28T11:09:37.655Z,98.96
2022-09-28T11:19:47.573Z,99.29
2022-09-28T11:41:49.939Z,99.18
2022-09-28T12:02:21.469Z,99.05
2022-09-28T12:12:36.936Z,99.21
2022-09-28T12:23:05.707Z,98.89
2022-09-28T12:33:14.236Z,98.99
2022-09-28T12:54:27.890Z,98.83
2022-09-28T13:04:56.044Z,98.42
2022-09-28T13:15:24.496Z,98.97
2022-09-28T13:25:40.433Z,98.98
2022-09-28T13:35:52.017Z,98.85
2022-09-28T13:46:18.141Z,99.18
2022-09-28T13:56:35.740Z,98.91
2022-09-28T14:06:47.515Z,98.69
2022-09-28T14:17:42.860Z,98.81
2022-09-28T14:28:12.875Z,98.53
2022-09-28T14:38:39.656Z,98.31
2022-09-28T14:48:51.959Z,98.63
2022-09-28T14:59:03.976Z,98.43
2022-09-28T15:09:42.633Z,98.67
2022-09-28T15:20:04.333Z,98.53
2022-09-28T15:30:28.316Z,99.02
2022-09-28T15:40:42.724Z,98.11
2022-09-28T15:51:06.450Z,98.51
2022-09-28T16:01:36.752Z,98.95
2022-09-28T16:11:45.066Z,99.20
2022-09-28T16:21:48.882Z,98.99
2022-09-28T16:31:55.070Z,99.43
2022-09-28T16:52:51.851Z,99.84
2022-09-28T17:13:20.929Z,99.88
2022-09-28T17:23:30.565Z,99.65
2022-09-28T17:33:42.632Z,99.87
2022-09-28T17:43:54.044Z,99.99
2022-09-28T17:54:05.618Z,100.00
2022-09-28T18:04:22.922Z,99.91
2022-09-28T18:14:36.469Z,100.00
2022-09-28T18:24:40.541Z,100.00
2022-09-28T18:35:02.154Z,100.00
2022-09-28T18:45:16.489Z,100.00
2022-09-28T18:55:32.020Z,100.00
2022-09-28T19:05:45.052Z,100.00
2022-09-28T19:15:51.828Z,100.00
2022-09-28T19:25:54.975Z,100.00
2022-09-28T19:36:09.361Z,100.00
2022-09-28T19:46:16.660Z,100.00
2022-09-28T19:56:29.925Z,100.00
2022-09-28T20:06:35.318Z,100.00
2022-09-28T20:16:45.920Z,100.00
2022-09-28T20:26:53.016Z,100.00
2022-09-28T20:37:01.038Z,100.00
2022-09-28T20:47:04.427Z,100.00
2022-09-28T20:57:17.969Z,100.00
2022-09-28T21:07:21.198Z,100.00
2022-09-28T21:17:27.578Z,100.00
2022-09-28T21:27:34.690Z,100.00
2022-09-28T21:37:40.813Z,100.00
2022-09-28T21:47:47.897Z,100.00
2022-09-28T21:57:52.366Z,100.00
2022-09-28T22:07:55.913Z,100.00
2022-09-28T22:18:00.655Z,100.00
2022-09-28T22:28:05.663Z,100.00
2022-09-28T22:38:10.056Z,100.00
2022-09-28T22:48:13.987Z,100.00
2022-09-28T22:58:18.827Z,100.00
2022-09-28T23:08:22.791Z,100.00
2022-09-28T23:18:30.565Z,100.00
2022-09-28T23:28:33.996Z,100.00
2022-09-28T23:38:38.490Z,100.00
2022-09-28T23:48:42.014Z,100.00
2022-09-28T23:58:49.304Z,100.00
